sensor_id;sensor_type;location;lat;lon;timestamp;P1;durP1;ratioP1;P2;durP2;ratioP2
22737;SDS011;11536;50.860;4.286;2022-10-16T00:00:57;4.55;;;0.93;;
22737;SDS011;11536;50.860;4.286;2022-10-16T00:03:23;2.97;;;0.80;;
22737;SDS011;11536;50.860;4.286;2022-10-16T00:05:48;2.10;;;0.80;;
22737;SDS011;11536;50.860;4.286;2022-10-16T00:08:14;3.75;;;0.80;;
22737;SDS011;11536;50.860;4.286;2022-10-16T00:10:40;2.17;;;0.75;;
22737;SDS011;11536;50.860;4.286;2022-10-16T00:13:06;4.10;;;0.90;;
22737;SDS011;11536;50.860;4.286;2022-10-16T00:15:33;2.22;;;0.70;;
22737;SDS011;11536;50.860;4.286;2022-10-16T00:18:01;1.33;;;0.50;;
22737;SDS011;11536;50.860;4.286;2022-10-16T00:20:27;3.08;;;0.60;;
22737;SDS011;11536;50.860;4.286;2022-10-16T00:22:53;2.95;;;0.68;;
22737;SDS011;11536;50.860;4.286;2022-10-16T00:25:18;2.72;;;0.75;;
22737;SDS011;11536;50.860;4.286;2022-10-16T00:27:44;2.28;;;0.63;;
22737;SDS011;11536;50.860;4.286;2022-10-16T00:30:09;2.10;;;0.63;;
22737;SDS011;11536;50.860;4.286;2022-10-16T00:32:35;2.75;;;0.70;;
22737;SDS011;11536;50.860;4.286;2022-10-16T00:35:01;4.10;;;0.73;;
22737;SDS011;11536;50.860;4.286;2022-10-16T00:37:28;2.63;;;0.70;;
22737;SDS011;11536;50.860;4.286;2022-10-16T00:39:54;4.55;;;0.77;;
22737;SDS011;11536;50.860;4.286;2022-10-16T00:42:19;2.75;;;0.60;;
22737;SDS011;11536;50.860;4.286;2022-10-16T00:44:52;2.92;;;0.63;;
22737;SDS011;11536;50.860;4.286;2022-10-16T00:49:57;3.15;;;0.70;;
22737;SDS011;11536;50.860;4.286;2022-10-16T00:52:27;4.10;;;1.00;;
22737;SDS011;11536;50.860;4.286;2022-10-16T00:54:53;2.40;;;0.80;;
22737;SDS011;11536;50.860;4.286;2022-10-16T00:57:20;4.55;;;0.95;;
22737;SDS011;11536;50.860;4.286;2022-10-16T00:59:46;3.33;;;0.90;;
22737;SDS011;11536;50.860;4.286;2022-10-16T01:02:13;4.55;;;0.90;;
22737;SDS011;11536;50.860;4.286;2022-10-16T01:04:42;2.20;;;0.85;;
22737;SDS011;11536;50.860;4.286;2022-10-16T01:15:34;2.58;;;0.75;;
22737;SDS011;11536;50.860;4.286;2022-10-16T01:18:05;5.00;;;0.90;;
22737;SDS011;11536;50.860;4.286;2022-10-16T01:23:36;1.83;;;0.70;;
22737;SDS011;11536;50.860;4.286;2022-10-16T01:26:23;2.47;;;0.70;;
22737;SDS011;11536;50.860;4.286;2022-10-16T01:28:55;4.22;;;0.90;;
22737;SDS011;11536;50.860;4.286;2022-10-16T01:31:34;3.08;;;0.82;;
22737;SDS011;11536;50.860;4.286;2022-10-16T01:36:45;3.60;;;1.00;;
22737;SDS011;11536;50.860;4.286;2022-10-16T01:39:19;5.40;;;1.00;;
22737;SDS011;11536;50.860;4.286;2022-10-16T01:42:07;7.50;;;1.08;;
22737;SDS011;11536;50.860;4.286;2022-10-16T01:44:37;2.47;;;0.90;;
22737;SDS011;11536;50.860;4.286;2022-10-16T01:47:04;6.20;;;1.10;;
22737;SDS011;11536;50.860;4.286;2022-10-16T01:49:33;2.88;;;1.17;;
22737;SDS011;11536;50.860;4.286;2022-10-16T01:52:02;3.92;;;1.10;;
22737;SDS011;11536;50.860;4.286;2022-10-16T01:54:32;2.63;;;0.90;;
22737;SDS011;11536;50.860;4.286;2022-10-16T01:56:59;3.00;;;1.17;;
22737;SDS011;11536;50.860;4.286;2022-10-16T01:59:26;4.50;;;1.45;;
22737;SDS011;11536;50.860;4.286;2022-10-16T02:01:56;3.20;;;1.00;;
22737;SDS011;11536;50.860;4.286;2022-10-16T02:06:53;2.95;;;1.00;;
22737;SDS011;11536;50.860;4.286;2022-10-16T02:09:19;3.60;;;1.10;;
22737;SDS011;11536;50.860;4.286;2022-10-16T02:11:45;2.88;;;0.98;;
22737;SDS011;11536;50.860;4.286;2022-10-16T02:14:11;4.47;;;1.10;;
22737;SDS011;11536;50.860;4.286;2022-10-16T02:16:40;4.50;;;1.45;;
22737;SDS011;11536;50.860;4.286;2022-10-16T02:19:07;3.60;;;1.10;;
22737;SDS011;11536;50.860;4.286;2022-10-16T02:21:38;2.70;;;1.30;;
22737;SDS011;11536;50.860;4.286;2022-10-16T02:24:20;3.95;;;1.10;;
22737;SDS011;11536;50.860;4.286;2022-10-16T02:27:14;4.10;;;1.10;;
22737;SDS011;11536;50.860;4.286;2022-10-16T02:29:55;4.60;;;1.15;;
22737;SDS011;11536;50.860;4.286;2022-10-16T02:32:32;2.63;;;0.90;;
22737;SDS011;11536;50.860;4.286;2022-10-16T02:34:59;4.50;;;1.13;;
22737;SDS011;11536;50.860;4.286;2022-10-16T02:37:25;4.95;;;1.30;;
22737;SDS011;11536;50.860;4.286;2022-10-16T02:39:53;3.45;;;1.13;;
22737;SDS011;11536;50.860;4.286;2022-10-16T02:42:20;4.38;;;1.10;;
22737;SDS011;11536;50.860;4.286;2022-10-16T02:44:52;3.47;;;1.60;;
22737;SDS011;11536;50.860;4.286;2022-10-16T02:47:17;5.30;;;1.20;;
22737;SDS011;11536;50.860;4.286;2022-10-16T02:49:43;3.55;;;1.08;;
22737;SDS011;11536;50.860;4.286;2022-10-16T02:52:08;3.95;;;1.20;;
22737;SDS011;11536;50.860;4.286;2022-10-16T02:54:34;3.67;;;1.00;;
22737;SDS011;11536;50.860;4.286;2022-10-16T02:56:59;3.00;;;1.00;;
22737;SDS011;11536;50.860;4.286;2022-10-16T02:59:25;2.90;;;1.10;;
22737;SDS011;11536;50.860;4.286;2022-10-16T03:01:50;6.28;;;1.85;;
22737;SDS011;11536;50.860;4.286;2022-10-16T03:04:16;6.03;;;1.50;;
22737;SDS011;11536;50.860;4.286;2022-10-16T03:06:42;4.07;;;1.50;;
22737;SDS011;11536;50.860;4.286;2022-10-16T03:09:07;8.13;;;1.33;;
22737;SDS011;11536;50.860;4.286;2022-10-16T03:11:33;3.42;;;1.30;;
22737;SDS011;11536;50.860;4.286;2022-10-16T03:13:58;3.20;;;1.20;;
22737;SDS011;11536;50.860;4.286;2022-10-16T03:16:24;4.97;;;1.48;;
22737;SDS011;11536;50.860;4.286;2022-10-16T03:18:50;3.97;;;1.30;;
22737;SDS011;11536;50.860;4.286;2022-10-16T03:21:15;4.25;;;1.55;;
22737;SDS011;11536;50.860;4.286;2022-10-16T03:23:41;7.13;;;1.60;;
22737;SDS011;11536;50.860;4.286;2022-10-16T03:26:07;4.10;;;1.40;;
22737;SDS011;11536;50.860;4.286;2022-10-16T03:28:32;4.43;;;1.23;;
22737;SDS011;11536;50.860;4.286;2022-10-16T03:30:58;3.65;;;1.30;;
22737;SDS011;11536;50.860;4.286;2022-10-16T03:33:24;3.40;;;1.17;;
22737;SDS011;11536;50.860;4.286;2022-10-16T03:35:52;4.38;;;1.33;;
22737;SDS011;11536;50.860;4.286;2022-10-16T03:38:19;7.15;;;1.80;;
22737;SDS011;11536;50.860;4.286;2022-10-16T03:40:45;4.93;;;1.33;;
22737;SDS011;11536;50.860;4.286;2022-10-16T03:43:11;2.63;;;1.20;;
22737;SDS011;11536;50.860;4.286;2022-10-16T03:45:36;4.40;;;1.40;;
22737;SDS011;11536;50.860;4.286;2022-10-16T03:48:02;8.98;;;1.40;;
22737;SDS011;11536;50.860;4.286;2022-10-16T03:50:28;3.42;;;1.30;;
22737;SDS011;11536;50.860;4.286;2022-10-16T03:52:54;4.85;;;1.45;;
22737;SDS011;11536;50.860;4.286;2022-10-16T03:55:20;4.95;;;1.60;;
22737;SDS011;11536;50.860;4.286;2022-10-16T03:57:46;4.30;;;1.30;;
22737;SDS011;11536;50.860;4.286;2022-10-16T04:00:11;5.40;;;1.55;;
22737;SDS011;11536;50.860;4.286;2022-10-16T04:02:37;5.70;;;1.55;;
22737;SDS011;11536;50.860;4.286;2022-10-16T04:05:04;4.90;;;1.40;;
22737;SDS011;11536;50.860;4.286;2022-10-16T04:07:29;5.53;;;1.38;;
22737;SDS011;11536;50.860;4.286;2022-10-16T04:09:55;6.05;;;1.40;;
22737;SDS011;11536;50.860;4.286;2022-10-16T04:12:22;4.47;;;1.60;;
22737;SDS011;11536;50.860;4.286;2022-10-16T04:14:47;4.40;;;1.30;;
22737;SDS011;11536;50.860;4.286;2022-10-16T04:17:13;5.05;;;1.33;;
22737;SDS011;11536;50.860;4.286;2022-10-16T04:19:38;3.95;;;1.20;;
22737;SDS011;11536;50.860;4.286;2022-10-16T04:22:04;4.40;;;1.20;;
22737;SDS011;11536;50.860;4.286;2022-10-16T04:24:29;5.63;;;1.40;;
22737;SDS011;11536;50.860;4.286;2022-10-16T04:26:55;3.35;;;1.40;;
22737;SDS011;11536;50.860;4.286;2022-10-16T04:29:20;6.05;;;1.48;;
22737;SDS011;11536;50.860;4.286;2022-10-16T04:31:46;3.22;;;1.20;;
22737;SDS011;11536;50.860;4.286;2022-10-16T04:34:12;4.43;;;1.33;;
22737;SDS011;11536;50.860;4.286;2022-10-16T04:36:38;2.70;;;1.20;;
22737;SDS011;11536;50.860;4.286;2022-10-16T04:39:03;4.85;;;1.40;;
22737;SDS011;11536;50.860;4.286;2022-10-16T04:41:29;4.97;;;1.20;;
22737;SDS011;11536;50.860;4.286;2022-10-16T04:43:54;5.57;;;1.27;;
22737;SDS011;11536;50.860;4.286;2022-10-16T04:46:20;4.70;;;1.52;;
22737;SDS011;11536;50.860;4.286;2022-10-16T04:48:45;7.57;;;1.90;;
22737;SDS011;11536;50.860;4.286;2022-10-16T04:51:11;3.95;;;1.02;;
22737;SDS011;11536;50.860;4.286;2022-10-16T04:53:37;4.78;;;1.40;;
22737;SDS011;11536;50.860;4.286;2022-10-16T04:56:03;7.95;;;1.38;;
22737;SDS011;11536;50.860;4.286;2022-10-16T04:58:28;3.28;;;1.33;;
22737;SDS011;11536;50.860;4.286;2022-10-16T05:00:54;6.72;;;1.27;;
22737;SDS011;11536;50.860;4.286;2022-10-16T05:03:20;4.85;;;1.63;;
22737;SDS011;11536;50.860;4.286;2022-10-16T05:05:46;3.92;;;1.30;;
22737;SDS011;11536;50.860;4.286;2022-10-16T05:08:12;5.03;;;1.50;;
22737;SDS011;11536;50.860;4.286;2022-10-16T05:10:40;4.45;;;1.50;;
22737;SDS011;11536;50.860;4.286;2022-10-16T05:13:06;5.90;;;1.48;;
22737;SDS011;11536;50.860;4.286;2022-10-16T05:15:32;5.35;;;1.30;;
22737;SDS011;11536;50.860;4.286;2022-10-16T05:17:58;6.88;;;1.38;;
22737;SDS011;11536;50.860;4.286;2022-10-16T05:20:23;3.70;;;1.27;;
22737;SDS011;11536;50.860;4.286;2022-10-16T05:22:49;5.72;;;1.60;;
22737;SDS011;11536;50.860;4.286;2022-10-16T05:25:15;4.10;;;1.63;;
22737;SDS011;11536;50.860;4.286;2022-10-16T05:27:40;5.78;;;1.67;;
22737;SDS011;11536;50.860;4.286;2022-10-16T05:30:06;4.80;;;1.50;;
22737;SDS011;11536;50.860;4.286;2022-10-16T05:32:32;4.00;;;1.60;;
22737;SDS011;11536;50.860;4.286;2022-10-16T05:34:58;4.22;;;1.65;;
22737;SDS011;11536;50.860;4.286;2022-10-16T05:37:25;5.15;;;1.73;;
22737;SDS011;11536;50.860;4.286;2022-10-16T05:39:51;5.22;;;1.60;;
22737;SDS011;11536;50.860;4.286;2022-10-16T05:42:17;4.53;;;1.90;;
22737;SDS011;11536;50.860;4.286;2022-10-16T05:44:43;5.13;;;1.75;;
22737;SDS011;11536;50.860;4.286;2022-10-16T05:47:08;8.43;;;1.90;;
22737;SDS011;11536;50.860;4.286;2022-10-16T05:49:35;6.72;;;2.40;;
22737;SDS011;11536;50.860;4.286;2022-10-16T05:52:01;4.97;;;1.73;;
22737;SDS011;11536;50.860;4.286;2022-10-16T05:54:26;5.45;;;2.00;;
22737;SDS011;11536;50.860;4.286;2022-10-16T05:56:52;5.97;;;1.98;;
22737;SDS011;11536;50.860;4.286;2022-10-16T05:59:18;10.90;;;2.10;;
22737;SDS011;11536;50.860;4.286;2022-10-16T06:01:43;4.38;;;1.75;;
22737;SDS011;11536;50.860;4.286;2022-10-16T06:04:09;7.63;;;1.90;;
22737;SDS011;11536;50.860;4.286;2022-10-16T06:06:34;5.57;;;2.00;;
22737;SDS011;11536;50.860;4.286;2022-10-16T06:09:01;5.93;;;1.88;;
22737;SDS011;11536;50.860;4.286;2022-10-16T06:11:28;4.95;;;1.90;;
22737;SDS011;11536;50.860;4.286;2022-10-16T06:13:57;6.22;;;1.55;;
22737;SDS011;11536;50.860;4.286;2022-10-16T06:16:26;5.22;;;1.85;;
22737;SDS011;11536;50.860;4.286;2022-10-16T06:18:53;4.30;;;1.92;;
22737;SDS011;11536;50.860;4.286;2022-10-16T06:21:20;7.35;;;1.70;;
22737;SDS011;11536;50.860;4.286;2022-10-16T06:23:49;7.85;;;1.90;;
22737;SDS011;11536;50.860;4.286;2022-10-16T06:26:18;5.60;;;1.67;;
22737;SDS011;11536;50.860;4.286;2022-10-16T06:28:45;6.50;;;1.70;;
22737;SDS011;11536;50.860;4.286;2022-10-16T06:31:11;6.65;;;3.30;;
22737;SDS011;11536;50.860;4.286;2022-10-16T06:33:37;6.28;;;1.85;;
22737;SDS011;11536;50.860;4.286;2022-10-16T06:36:05;9.35;;;2.05;;
22737;SDS011;11536;50.860;4.286;2022-10-16T06:38:35;5.60;;;1.77;;
22737;SDS011;11536;50.860;4.286;2022-10-16T06:41:02;5.55;;;1.73;;
22737;SDS011;11536;50.860;4.286;2022-10-16T06:43:28;5.93;;;1.80;;
22737;SDS011;11536;50.860;4.286;2022-10-16T06:45:57;5.00;;;1.65;;
22737;SDS011;11536;50.860;4.286;2022-10-16T06:48:24;4.70;;;1.70;;
22737;SDS011;11536;50.860;4.286;2022-10-16T06:51:01;6.22;;;2.17;;
22737;SDS011;11536;50.860;4.286;2022-10-16T06:53:44;5.22;;;1.92;;
22737;SDS011;11536;50.860;4.286;2022-10-16T06:56:13;4.05;;;1.70;;
22737;SDS011;11536;50.860;4.286;2022-10-16T06:58:40;5.95;;;1.88;;
22737;SDS011;11536;50.860;4.286;2022-10-16T07:01:07;6.28;;;1.65;;
22737;SDS011;11536;50.860;4.286;2022-10-16T07:03:33;6.15;;;1.67;;
22737;SDS011;11536;50.860;4.286;2022-10-16T07:06:01;5.75;;;1.80;;
22737;SDS011;11536;50.860;4.286;2022-10-16T07:08:30;4.30;;;1.70;;
22737;SDS011;11536;50.860;4.286;2022-10-16T07:11:00;5.88;;;1.83;;
22737;SDS011;11536;50.860;4.286;2022-10-16T07:13:28;5.95;;;1.90;;
22737;SDS011;11536;50.860;4.286;2022-10-16T07:15:54;6.45;;;1.70;;
22737;SDS011;11536;50.860;4.286;2022-10-16T07:18:19;5.32;;;1.52;;
22737;SDS011;11536;50.860;4.286;2022-10-16T07:20:45;7.85;;;1.77;;
22737;SDS011;11536;50.860;4.286;2022-10-16T07:23:11;6.82;;;1.50;;
22737;SDS011;11536;50.860;4.286;2022-10-16T07:25:36;5.20;;;1.60;;
22737;SDS011;11536;50.860;4.286;2022-10-16T07:28:02;6.00;;;1.75;;
22737;SDS011;11536;50.860;4.286;2022-10-16T07:30:27;4.45;;;1.50;;
22737;SDS011;11536;50.860;4.286;2022-10-16T07:32:53;8.38;;;1.67;;
22737;SDS011;11536;50.860;4.286;2022-10-16T07:35:18;8.95;;;1.77;;
22737;SDS011;11536;50.860;4.286;2022-10-16T07:37:45;6.15;;;1.95;;
22737;SDS011;11536;50.860;4.286;2022-10-16T07:40:10;5.85;;;1.55;;
22737;SDS011;11536;50.860;4.286;2022-10-16T07:42:36;5.90;;;1.70;;
22737;SDS011;11536;50.860;4.286;2022-10-16T07:45:02;5.35;;;1.80;;
22737;SDS011;11536;50.860;4.286;2022-10-16T07:47:28;7.95;;;1.73;;
22737;SDS011;11536;50.860;4.286;2022-10-16T07:49:54;3.88;;;1.40;;
22737;SDS011;11536;50.860;4.286;2022-10-16T07:52:22;5.85;;;1.85;;
22737;SDS011;11536;50.860;4.286;2022-10-16T07:54:47;6.45;;;1.67;;
22737;SDS011;11536;50.860;4.286;2022-10-16T07:57:13;4.55;;;1.75;;
22737;SDS011;11536;50.860;4.286;2022-10-16T07:59:53;4.43;;;1.70;;
22737;SDS011;11536;50.860;4.286;2022-10-16T08:02:19;4.97;;;1.75;;
22737;SDS011;11536;50.860;4.286;2022-10-16T08:04:46;5.32;;;2.00;;
22737;SDS011;11536;50.860;4.286;2022-10-16T08:07:12;4.40;;;1.55;;
22737;SDS011;11536;50.860;4.286;2022-10-16T08:09:38;4.70;;;1.60;;
22737;SDS011;11536;50.860;4.286;2022-10-16T08:12:03;7.70;;;1.92;;
22737;SDS011;11536;50.860;4.286;2022-10-16T08:14:30;5.68;;;1.70;;
22737;SDS011;11536;50.860;4.286;2022-10-16T08:16:55;4.40;;;1.60;;
22737;SDS011;11536;50.860;4.286;2022-10-16T08:19:21;6.78;;;1.92;;
22737;SDS011;11536;50.860;4.286;2022-10-16T08:21:47;5.63;;;1.67;;
22737;SDS011;11536;50.860;4.286;2022-10-16T08:24:13;3.63;;;1.60;;
22737;SDS011;11536;50.860;4.286;2022-10-16T08:26:38;6.60;;;1.50;;
22737;SDS011;11536;50.860;4.286;2022-10-16T08:29:04;4.38;;;1.48;;
22737;SDS011;11536;50.860;4.286;2022-10-16T08:31:29;7.80;;;2.95;;
22737;SDS011;11536;50.860;4.286;2022-10-16T08:33:55;5.78;;;1.50;;
22737;SDS011;11536;50.860;4.286;2022-10-16T08:36:21;5.40;;;1.48;;
22737;SDS011;11536;50.860;4.286;2022-10-16T08:38:47;6.03;;;1.80;;
22737;SDS011;11536;50.860;4.286;2022-10-16T08:44:01;6.00;;;1.38;;
22737;SDS011;11536;50.860;4.286;2022-10-16T08:46:33;6.05;;;1.60;;
22737;SDS011;11536;50.860;4.286;2022-10-16T08:49:11;4.90;;;1.30;;
22737;SDS011;11536;50.860;4.286;2022-10-16T08:51:40;6.25;;;1.63;;
22737;SDS011;11536;50.860;4.286;2022-10-16T08:54:26;6.22;;;1.20;;
22737;SDS011;11536;50.860;4.286;2022-10-16T08:56:56;4.75;;;1.20;;
22737;SDS011;11536;50.860;4.286;2022-10-16T08:59:26;9.43;;;1.33;;
22737;SDS011;11536;50.860;4.286;2022-10-16T09:01:55;4.55;;;1.42;;
22737;SDS011;11536;50.860;4.286;2022-10-16T09:07:08;6.63;;;1.30;;
22737;SDS011;11536;50.860;4.286;2022-10-16T09:12:15;6.47;;;1.23;;
22737;SDS011;11536;50.860;4.286;2022-10-16T09:15:24;5.95;;;0.95;;
22737;SDS011;11536;50.860;4.286;2022-10-16T09:23:23;3.42;;;0.90;;
22737;SDS011;11536;50.860;4.286;2022-10-16T09:25:51;4.60;;;1.05;;
22737;SDS011;11536;50.860;4.286;2022-10-16T09:28:19;5.22;;;1.35;;
22737;SDS011;11536;50.860;4.286;2022-10-16T09:30:45;4.55;;;0.90;;
22737;SDS011;11536;50.860;4.286;2022-10-16T09:33:13;4.57;;;1.20;;
22737;SDS011;11536;50.860;4.286;2022-10-16T09:35:42;6.22;;;1.20;;
22737;SDS011;11536;50.860;4.286;2022-10-16T09:38:22;5.72;;;1.00;;
22737;SDS011;11536;50.860;4.286;2022-10-16T09:40:50;6.32;;;1.08;;
22737;SDS011;11536;50.860;4.286;2022-10-16T09:43:19;5.97;;;0.90;;
22737;SDS011;11536;50.860;4.286;2022-10-16T09:46:00;6.30;;;0.90;;
22737;SDS011;11536;50.860;4.286;2022-10-16T09:48:36;5.22;;;1.00;;
22737;SDS011;11536;50.860;4.286;2022-10-16T09:51:05;5.47;;;1.10;;
22737;SDS011;11536;50.860;4.286;2022-10-16T09:53:44;7.57;;;1.17;;
22737;SDS011;11536;50.860;4.286;2022-10-16T09:56:12;7.72;;;1.10;;
22737;SDS011;11536;50.860;4.286;2022-10-16T09:58:52;7.93;;;1.00;;
22737;SDS011;11536;50.860;4.286;2022-10-16T10:01:41;6.68;;;1.15;;
22737;SDS011;11536;50.860;4.286;2022-10-16T10:04:09;3.65;;;0.70;;
22737;SDS011;11536;50.860;4.286;2022-10-16T10:06:45;6.50;;;0.90;;
22737;SDS011;11536;50.860;4.286;2022-10-16T10:09:32;7.10;;;0.90;;
22737;SDS011;11536;50.860;4.286;2022-10-16T10:12:03;6.13;;;1.03;;
22737;SDS011;11536;50.860;4.286;2022-10-16T10:14:31;5.78;;;0.90;;
22737;SDS011;11536;50.860;4.286;2022-10-16T10:19:41;8.32;;;0.90;;
22737;SDS011;11536;50.860;4.286;2022-10-16T10:27:46;5.53;;;1.23;;
22737;SDS011;11536;50.860;4.286;2022-10-16T10:33:12;7.63;;;0.93;;
22737;SDS011;11536;50.860;4.286;2022-10-16T10:35:49;8.70;;;1.25;;
22737;SDS011;11536;50.860;4.286;2022-10-16T10:38:27;7.03;;;1.00;;
22737;SDS011;11536;50.860;4.286;2022-10-16T10:43:54;7.93;;;1.00;;
22737;SDS011;11536;50.860;4.286;2022-10-16T10:46:45;4.43;;;0.95;;
22737;SDS011;11536;50.860;4.286;2022-10-16T10:49:28;4.77;;;0.90;;
22737;SDS011;11536;50.860;4.286;2022-10-16T10:52:13;4.95;;;1.10;;
22737;SDS011;11536;50.860;4.286;2022-10-16T11:03:46;6.10;;;1.08;;
22737;SDS011;11536;50.860;4.286;2022-10-16T11:06:14;4.00;;;1.00;;
22737;SDS011;11536;50.860;4.286;2022-10-16T11:08:48;6.13;;;0.88;;
22737;SDS011;11536;50.860;4.286;2022-10-16T11:16:29;5.32;;;0.85;;
22737;SDS011;11536;50.860;4.286;2022-10-16T11:22:07;5.22;;;1.00;;
22737;SDS011;11536;50.860;4.286;2022-10-16T11:25:30;5.32;;;1.30;;
22737;SDS011;11536;50.860;4.286;2022-10-16T11:27:51;4.18;;;0.60;;
22737;SDS011;11536;50.860;4.286;2022-10-16T11:30:22;7.45;;;0.95;;
22737;SDS011;11536;50.860;4.286;2022-10-16T11:35:38;5.07;;;0.70;;
22737;SDS011;11536;50.860;4.286;2022-10-16T11:38:33;3.20;;;0.65;;
22737;SDS011;11536;50.860;4.286;2022-10-16T11:44:08;5.15;;;0.73;;
22737;SDS011;11536;50.860;4.286;2022-10-16T11:46:50;4.50;;;0.60;;
22737;SDS011;11536;50.860;4.286;2022-10-16T11:49:34;3.90;;;0.80;;
22737;SDS011;11536;50.860;4.286;2022-10-16T11:52:08;4.88;;;0.80;;
22737;SDS011;11536;50.860;4.286;2022-10-16T11:57:23;4.40;;;0.90;;
22737;SDS011;11536;50.860;4.286;2022-10-16T11:59:54;4.53;;;1.00;;
22737;SDS011;11536;50.860;4.286;2022-10-16T12:02:34;6.22;;;1.00;;
22737;SDS011;11536;50.860;4.286;2022-10-16T12:08:11;3.67;;;0.55;;
22737;SDS011;11536;50.860;4.286;2022-10-16T12:10:40;3.90;;;0.90;;
22737;SDS011;11536;50.860;4.286;2022-10-16T12:18:39;5.13;;;1.10;;
22737;SDS011;11536;50.860;4.286;2022-10-16T12:21:05;6.65;;;1.30;;
22737;SDS011;11536;50.860;4.286;2022-10-16T12:23:54;4.40;;;0.90;;
22737;SDS011;11536;50.860;4.286;2022-10-16T12:26:23;4.35;;;0.88;;
22737;SDS011;11536;50.860;4.286;2022-10-16T12:29:14;4.65;;;1.33;;
22737;SDS011;11536;50.860;4.286;2022-10-16T12:31:53;7.47;;;1.10;;
22737;SDS011;11536;50.860;4.286;2022-10-16T12:34:21;6.80;;;1.52;;
22737;SDS011;11536;50.860;4.286;2022-10-16T12:37:20;6.18;;;0.93;;
22737;SDS011;11536;50.860;4.286;2022-10-16T12:39:48;2.88;;;0.73;;
22737;SDS011;11536;50.860;4.286;2022-10-16T12:42:23;5.35;;;0.80;;
22737;SDS011;11536;50.860;4.286;2022-10-16T12:44:59;2.38;;;0.60;;
22737;SDS011;11536;50.860;4.286;2022-10-16T12:49:57;4.22;;;0.70;;
22737;SDS011;11536;50.860;4.286;2022-10-16T12:52:27;5.50;;;1.00;;
22737;SDS011;11536;50.860;4.286;2022-10-16T12:55:00;3.33;;;0.63;;
22737;SDS011;11536;50.860;4.286;2022-10-16T12:57:41;3.83;;;0.52;;
22737;SDS011;11536;50.860;4.286;2022-10-16T13:05:25;4.90;;;0.70;;
22737;SDS011;11536;50.860;4.286;2022-10-16T13:29:18;4.88;;;0.80;;
22737;SDS011;11536;50.860;4.286;2022-10-16T13:31:44;4.38;;;0.70;;
22737;SDS011;11536;50.860;4.286;2022-10-16T13:34:14;5.25;;;1.25;;
22737;SDS011;11536;50.860;4.286;2022-10-16T13:36:47;4.53;;;0.80;;
22737;SDS011;11536;50.860;4.286;2022-10-16T13:39:24;5.07;;;0.90;;
22737;SDS011;11536;50.860;4.286;2022-10-16T13:44:28;3.20;;;0.73;;
22737;SDS011;11536;50.860;4.286;2022-10-16T13:47:00;3.55;;;0.70;;
22737;SDS011;11536;50.860;4.286;2022-10-16T13:49:26;3.53;;;0.70;;
22737;SDS011;11536;50.860;4.286;2022-10-16T13:51:55;3.30;;;0.63;;
22737;SDS011;11536;50.860;4.286;2022-10-16T13:54:22;4.97;;;0.80;;
22737;SDS011;11536;50.860;4.286;2022-10-16T13:56:49;5.78;;;0.80;;
22737;SDS011;11536;50.860;4.286;2022-10-16T13:59:33;5.38;;;0.80;;
22737;SDS011;11536;50.860;4.286;2022-10-16T14:02:00;3.30;;;0.85;;
22737;SDS011;11536;50.860;4.286;2022-10-16T14:04:37;5.82;;;0.80;;
22737;SDS011;11536;50.860;4.286;2022-10-16T14:07:12;5.00;;;0.93;;
22737;SDS011;11536;50.860;4.286;2022-10-16T14:09:47;4.10;;;0.80;;
22737;SDS011;11536;50.860;4.286;2022-10-16T14:12:15;4.18;;;0.77;;
22737;SDS011;11536;50.860;4.286;2022-10-16T14:14:42;3.90;;;1.05;;
22737;SDS011;11536;50.860;4.286;2022-10-16T14:17:29;5.75;;;0.85;;
22737;SDS011;11536;50.860;4.286;2022-10-16T14:19:58;3.78;;;0.68;;
22737;SDS011;11536;50.860;4.286;2022-10-16T14:22:33;3.47;;;0.70;;
22737;SDS011;11536;50.860;4.286;2022-10-16T14:25:01;3.47;;;0.70;;
22737;SDS011;11536;50.860;4.286;2022-10-16T14:27:38;3.15;;;0.50;;
22737;SDS011;11536;50.860;4.286;2022-10-16T14:30:17;3.22;;;0.80;;
22737;SDS011;11536;50.860;4.286;2022-10-16T14:33:04;2.92;;;0.73;;
22737;SDS011;11536;50.860;4.286;2022-10-16T14:37:59;5.13;;;1.02;;
22737;SDS011;11536;50.860;4.286;2022-10-16T14:40:27;5.22;;;0.70;;
22737;SDS011;11536;50.860;4.286;2022-10-16T14:42:58;4.90;;;0.70;;
22737;SDS011;11536;50.860;4.286;2022-10-16T14:45:26;6.47;;;0.90;;
22737;SDS011;11536;50.860;4.286;2022-10-16T14:47:56;3.25;;;0.93;;
22737;SDS011;11536;50.860;4.286;2022-10-16T14:50:23;3.53;;;0.77;;
22737;SDS011;11536;50.860;4.286;2022-10-16T14:52:49;3.70;;;0.60;;
22737;SDS011;11536;50.860;4.286;2022-10-16T14:55:15;3.35;;;0.68;;
22737;SDS011;11536;50.860;4.286;2022-10-16T14:57:42;4.82;;;0.95;;
22737;SDS011;11536;50.860;4.286;2022-10-16T15:00:10;6.82;;;0.80;;
22737;SDS011;11536;50.860;4.286;2022-10-16T15:02:42;5.18;;;1.00;;
22737;SDS011;11536;50.860;4.286;2022-10-16T15:07:42;4.65;;;0.93;;
22737;SDS011;11536;50.860;4.286;2022-10-16T15:10:08;5.38;;;1.10;;
22737;SDS011;11536;50.860;4.286;2022-10-16T15:12:35;7.60;;;1.33;;
22737;SDS011;11536;50.860;4.286;2022-10-16T15:15:01;6.05;;;1.40;;
22737;SDS011;11536;50.860;4.286;2022-10-16T15:17:27;5.03;;;1.20;;
22737;SDS011;11536;50.860;4.286;2022-10-16T15:19:52;3.97;;;1.00;;
22737;SDS011;11536;50.860;4.286;2022-10-16T15:22:18;8.07;;;1.20;;
22737;SDS011;11536;50.860;4.286;2022-10-16T15:24:43;4.22;;;1.10;;
22737;SDS011;11536;50.860;4.286;2022-10-16T15:27:09;8.93;;;1.05;;
22737;SDS011;11536;50.860;4.286;2022-10-16T15:29:35;6.28;;;0.95;;
22737;SDS011;11536;50.860;4.286;2022-10-16T15:32:00;5.03;;;1.00;;
22737;SDS011;11536;50.860;4.286;2022-10-16T15:34:26;4.60;;;1.30;;
22737;SDS011;11536;50.860;4.286;2022-10-16T15:36:51;4.15;;;1.15;;
22737;SDS011;11536;50.860;4.286;2022-10-16T15:39:18;6.22;;;1.10;;
22737;SDS011;11536;50.860;4.286;2022-10-16T15:41:45;9.48;;;1.25;;
22737;SDS011;11536;50.860;4.286;2022-10-16T15:44:16;4.43;;;0.95;;
22737;SDS011;11536;50.860;4.286;2022-10-16T15:46:42;5.53;;;0.90;;
22737;SDS011;11536;50.860;4.286;2022-10-16T15:49:08;9.02;;;1.40;;
22737;SDS011;11536;50.860;4.286;2022-10-16T15:51:34;4.15;;;0.68;;
22737;SDS011;11536;50.860;4.286;2022-10-16T15:54:03;3.70;;;1.15;;
22737;SDS011;11536;50.860;4.286;2022-10-16T15:56:29;5.75;;;1.00;;
22737;SDS011;11536;50.860;4.286;2022-10-16T15:58:58;4.63;;;1.13;;
22737;SDS011;11536;50.860;4.286;2022-10-16T16:01:24;5.15;;;1.05;;
22737;SDS011;11536;50.860;4.286;2022-10-16T16:03:53;4.72;;;1.00;;
22737;SDS011;11536;50.860;4.286;2022-10-16T16:06:20;6.88;;;1.00;;
22737;SDS011;11536;50.860;4.286;2022-10-16T16:08:45;6.93;;;1.30;;
22737;SDS011;11536;50.860;4.286;2022-10-16T16:11:12;6.47;;;1.20;;
22737;SDS011;11536;50.860;4.286;2022-10-16T16:13:39;4.95;;;1.20;;
22737;SDS011;11536;50.860;4.286;2022-10-16T16:16:11;6.22;;;1.45;;
22737;SDS011;11536;50.860;4.286;2022-10-16T16:18:39;6.30;;;2.50;;
22737;SDS011;11536;50.860;4.286;2022-10-16T16:21:05;7.45;;;2.63;;
22737;SDS011;11536;50.860;4.286;2022-10-16T16:23:31;6.60;;;2.58;;
22737;SDS011;11536;50.860;4.286;2022-10-16T16:28:33;5.38;;;2.30;;
22737;SDS011;11536;50.860;4.286;2022-10-16T16:31:03;5.85;;;2.15;;
22737;SDS011;11536;50.860;4.286;2022-10-16T16:33:29;6.03;;;2.20;;
22737;SDS011;11536;50.860;4.286;2022-10-16T16:36:00;6.03;;;2.00;;
22737;SDS011;11536;50.860;4.286;2022-10-16T16:38:27;7.57;;;2.10;;
22737;SDS011;11536;50.860;4.286;2022-10-16T16:40:57;6.45;;;1.95;;
22737;SDS011;11536;50.860;4.286;2022-10-16T16:43:23;6.05;;;2.08;;
22737;SDS011;11536;50.860;4.286;2022-10-16T16:45:50;6.07;;;1.88;;
22737;SDS011;11536;50.860;4.286;2022-10-16T16:48:15;5.97;;;2.28;;
22737;SDS011;11536;50.860;4.286;2022-10-16T16:50:41;6.30;;;2.10;;
22737;SDS011;11536;50.860;4.286;2022-10-16T16:53:06;7.43;;;2.13;;
22737;SDS011;11536;50.860;4.286;2022-10-16T16:55:32;4.80;;;1.63;;
22737;SDS011;11536;50.860;4.286;2022-10-16T16:57:58;5.07;;;1.60;;
22737;SDS011;11536;50.860;4.286;2022-10-16T17:00:23;5.38;;;1.40;;